createdAt,value
2022-09-15T00:02:54.261Z,10.37
2022-09-15T00:05:57.870Z,10.48
2022-09-15T00:09:01.147Z,10.65
2022-09-15T00:12:04.591Z,9.23
2022-09-15T00:15:09.099Z,11.95
2022-09-15T00:18:13.824Z,5.78
2022-09-15T00:21:19.776Z,4.95
2022-09-15T00:24:23.198Z,6.90
2022-09-15T00:27:26.619Z,5.85
2022-09-15T00:30:29.900Z,4.97
2022-09-15T00:33:34.759Z,4.45
2022-09-15T00:36:38.043Z,5.72
2022-09-15T00:39:41.265Z,5.82
2022-09-15T00:42:44.529Z,4.70
2022-09-15T00:45:48.602Z,5.75
2022-09-15T00:48:59.329Z,4.50
2022-09-15T00:52:07.382Z,5.75
2022-09-15T00:55:16.053Z,3.67
2022-09-15T00:58:26.083Z,6.40
2022-09-15T01:01:31.883Z,5.82
2022-09-15T01:04:36.674Z,5.63
2022-09-15T01:07:44.531Z,5.15
2022-09-15T01:10:47.811Z,7.57
2022-09-15T01:13:50.994Z,3.45
2022-09-15T01:17:00.148Z,8.50
2022-09-15T01:20:48.427Z,5.07
2022-09-15T01:24:26.901Z,6.10
2022-09-15T01:28:04.150Z,4.20
2022-09-15T01:31:15.149Z,4.25
2022-09-15T01:34:21.084Z,5.72
2022-09-15T01:37:31.944Z,5.30
2022-09-15T01:40:40.385Z,4.38
2022-09-15T01:43:50.465Z,4.57
2022-09-15T01:46:58.639Z,4.60
2022-09-15T01:50:07.386Z,7.70
2022-09-15T01:53:15.551Z,5.15
2022-09-15T01:56:18.908Z,3.72
2022-09-15T01:59:22.079Z,5.25
2022-09-15T02:02:31.698Z,5.47
2022-09-15T02:05:41.254Z,8.00
2022-09-15T02:08:47.885Z,5.38
2022-09-15T02:11:59.289Z,7.43
2022-09-15T02:15:08.160Z,7.28
2022-09-15T02:18:18.545Z,12.93
2022-09-15T02:21:29.906Z,16.30
2022-09-15T02:24:39.761Z,18.05
2022-09-15T02:27:47.392Z,15.40
2022-09-15T02:30:52.579Z,17.42
2022-09-15T02:34:01.435Z,20.25
2022-09-15T02:37:05.888Z,19.38
2022-09-15T02:40:10.308Z,20.13
2022-09-15T02:43:16.041Z,16.90
2022-09-15T02:46:21.262Z,19.23
2022-09-15T02:49:25.889Z,13.93
2022-09-15T02:52:29.073Z,13.32
2022-09-15T02:55:32.415Z,15.60
2022-09-15T02:58:36.060Z,13.88
2022-09-15T03:01:39.410Z,12.60
2022-09-15T03:04:43.991Z,13.82
2022-09-15T03:07:47.341Z,10.85
2022-09-15T03:10:50.582Z,11.23
2022-09-15T03:13:55.802Z,7.22
2022-09-15T03:16:59.009Z,12.52
2022-09-15T03:20:04.102Z,11.07
2022-09-15T03:23:07.336Z,7.60
2022-09-15T03:26:11.789Z,9.00
2022-09-15T03:29:15.027Z,10.90
2022-09-15T03:32:18.178Z,7.28
2022-09-15T03:35:22.812Z,5.40
2022-09-15T03:38:26.288Z,5.93
2022-09-15T03:41:29.515Z,8.07
2022-09-15T03:44:32.715Z,8.18
2022-09-15T03:47:35.972Z,9.57
2022-09-15T03:50:40.572Z,12.60
2022-09-15T03:53:43.993Z,11.38
2022-09-15T03:56:49.144Z,10.48
2022-09-15T03:59:52.343Z,13.50
2022-09-15T04:02:55.607Z,13.65
2022-09-15T04:06:00.102Z,13.50
2022-09-15T04:09:03.421Z,16.27
2022-09-15T04:12:07.140Z,16.50
2022-09-15T04:15:11.488Z,22.63
2022-09-15T04:18:14.684Z,23.35
2022-09-15T04:21:21.421Z,36.20
2022-09-15T04:24:24.703Z,43.05
2022-09-15T04:27:27.945Z,47.40
2022-09-15T04:30:31.109Z,51.53
2022-09-15T04:33:34.723Z,62.83
2022-09-15T04:36:39.360Z,58.10
2022-09-15T04:39:42.565Z,64.27
2022-09-15T04:42:45.785Z,52.23
2022-09-15T04:45:49.282Z,43.00
2022-09-15T04:48:54.049Z,37.80
2022-09-15T04:51:58.789Z,37.87
2022-09-15T04:55:05.012Z,33.57
2022-09-15T04:58:08.463Z,37.30
2022-09-15T05:01:13.573Z,26.47
2022-09-15T05:04:16.866Z,30.53
2022-09-15T05:07:21.772Z,33.00
2022-09-15T05:10:24.930Z,34.37
2022-09-15T05:13:28.307Z,25.63
2022-09-15T05:16:32.083Z,27.20
2022-09-15T05:19:35.361Z,30.90
2022-09-15T05:22:41.952Z,23.90
2022-09-15T05:25:45.315Z,20.37
2022-09-15T05:28:48.339Z,22.17
2022-09-15T05:31:51.653Z,20.60
2022-09-15T05:34:55.088Z,27.45
2022-09-15T05:37:59.879Z,20.88
2022-09-15T05:41:04.067Z,23.98
2022-09-15T05:44:07.305Z,23.85
2022-09-15T05:47:10.575Z,26.20
2022-09-15T05:50:14.852Z,15.23
2022-09-15T05:53:19.661Z,20.15
2022-09-15T05:56:23.128Z,18.38
2022-09-15T05:59:26.331Z,14.02
2022-09-15T06:02:29.877Z,16.83
2022-09-15T06:05:33.146Z,13.43
2022-09-15T06:08:44.063Z,23.15
2022-09-15T06:11:47.774Z,10.95
2022-09-15T06:14:52.972Z,9.02
2022-09-15T06:17:56.276Z,13.93
2022-09-15T06:20:59.547Z,11.30
2022-09-15T06:24:07.442Z,9.00
2022-09-15T06:27:10.785Z,10.27
2022-09-15T06:30:14.774Z,17.00
2022-09-15T06:33:17.942Z,7.72
2022-09-15T06:36:22.666Z,12.63
2022-09-15T06:39:27.370Z,6.10
2022-09-15T06:42:30.666Z,10.38
2022-09-15T06:45:34.131Z,8.20
2022-09-15T06:48:38.301Z,5.88
2022-09-15T06:51:42.150Z,9.20
2022-09-15T06:54:46.778Z,6.90
2022-09-15T06:57:51.134Z,6.18
2022-09-15T07:00:54.355Z,13.73
2022-09-15T07:03:58.940Z,9.07
2022-09-15T07:07:02.120Z,10.70
2022-09-15T07:10:07.566Z,17.40
2022-09-15T07:13:10.701Z,6.30
2022-09-15T07:16:15.891Z,10.75
2022-09-15T07:19:19.173Z,8.10
2022-09-15T07:22:22.353Z,10.88
2022-09-15T07:25:27.038Z,12.13
2022-09-15T07:28:30.251Z,12.52
2022-09-15T07:31:35.190Z,10.27
2022-09-15T07:34:38.458Z,17.67
2022-09-15T07:37:41.650Z,8.05
2022-09-15T07:40:46.539Z,11.48
2022-09-15T07:43:50.795Z,11.85
2022-09-15T07:46:54.037Z,10.10
2022-09-15T07:49:57.239Z,15.32
2022-09-15T07:53:00.529Z,14.23
2022-09-15T07:56:05.439Z,14.25
2022-09-15T07:59:09.006Z,13.65
2022-09-15T08:02:18.356Z,12.20
2022-09-15T08:05:21.761Z,8.93
2022-09-15T08:08:24.962Z,7.28
2022-09-15T08:11:30.534Z,13.00
2022-09-15T08:14:34.046Z,9.82
2022-09-15T08:17:37.325Z,9.70
2022-09-15T08:20:40.986Z,14.25
2022-09-15T08:23:44.966Z,13.27
2022-09-15T08:26:49.614Z,17.20
2022-09-15T08:29:53.144Z,18.85
2022-09-15T08:32:56.505Z,18.35
2022-09-15T08:36:04.102Z,16.33
2022-09-15T08:39:07.642Z,14.45
2022-09-15T08:42:16.964Z,15.32
2022-09-15T08:45:24.337Z,18.00
2022-09-15T08:48:32.015Z,15.15
2022-09-15T08:51:42.024Z,16.55
2022-09-15T08:54:45.308Z,15.43
2022-09-15T08:57:49.960Z,14.75
2022-09-15T09:01:04.004Z,14.23
2022-09-15T09:04:29.065Z,18.63
2022-09-15T09:07:52.315Z,11.43
2022-09-15T09:11:00.876Z,13.18
2022-09-15T09:14:14.983Z,13.70
2022-09-15T09:17:34.660Z,9.77
2022-09-15T09:20:50.527Z,8.55
2022-09-15T09:24:01.145Z,6.03
2022-09-15T09:27:06.327Z,18.67
2022-09-15T09:30:17.816Z,8.80
2022-09-15T09:33:30.492Z,12.98
2022-09-15T09:36:34.937Z,9.05
2022-09-15T09:39:38.269Z,20.08
2022-09-15T09:42:42.021Z,15.55
2022-09-15T09:45:47.114Z,9.75
2022-09-15T09:48:56.403Z,7.70
2022-09-15T09:52:03.425Z,7.93
2022-09-15T09:55:24.338Z,11.80
2022-09-15T09:58:27.575Z,7.25
2022-09-15T10:01:32.401Z,13.52
2022-09-15T10:04:35.683Z,7.18
2022-09-15T10:07:44.838Z,7.40
2022-09-15T10:10:52.605Z,11.82
2022-09-15T10:13:56.894Z,10.30
2022-09-15T10:17:04.333Z,6.28
2022-09-15T10:20:25.926Z,9.25
2022-09-15T10:23:31.105Z,8.75
2022-09-15T10:26:36.219Z,8.48
2022-09-15T10:29:40.392Z,7.68
2022-09-15T10:32:45.455Z,7.40
2022-09-15T10:35:48.645Z,6.35
2022-09-15T10:39:03.299Z,11.68
2022-09-15T10:42:13.209Z,10.20
2022-09-15T10:45:28.608Z,11.75
2022-09-15T10:49:01.882Z,13.20
2022-09-15T10:52:17.615Z,6.13
2022-09-15T10:55:51.642Z,6.47
2022-09-15T10:59:03.767Z,7.28
2022-09-15T11:02:24.631Z,8.77
2022-09-15T11:05:41.116Z,6.43
2022-09-15T11:09:01.040Z,7.90
2022-09-15T11:12:16.790Z,6.68
2022-09-15T11:15:34.524Z,11.75
2022-09-15T11:18:54.086Z,12.10
2022-09-15T11:22:03.759Z,17.95
2022-09-15T11:25:16.287Z,7.05
2022-09-15T11:28:24.472Z,14.43
2022-09-15T11:31:31.491Z,12.80
2022-09-15T11:34:41.016Z,15.10
2022-09-15T11:37:51.167Z,6.60
2022-09-15T11:40:58.308Z,9.95
2022-09-15T11:44:20.012Z,15.77
2022-09-15T11:47:33.084Z,9.00
2022-09-15T11:50:40.645Z,11.75
2022-09-15T11:53:50.983Z,9.38
2022-09-15T11:56:56.728Z,13.73
2022-09-15T12:00:07.821Z,10.13
2022-09-15T12:03:21.432Z,12.02
2022-09-15T12:06:33.527Z,12.40
2022-09-15T12:09:38.050Z,13.02
2022-09-15T12:12:42.800Z,13.60
2022-09-15T12:15:47.755Z,10.32
2022-09-15T12:18:55.765Z,17.85
2022-09-15T12:22:03.471Z,9.43
2022-09-15T12:25:16.422Z,11.05
2022-09-15T12:28:39.833Z,12.52
2022-09-15T12:31:43.152Z,10.25
2022-09-15T12:35:02.071Z,7.65
2022-09-15T12:38:05.480Z,10.15
2022-09-15T12:41:11.344Z,9.95
2022-09-15T12:44:24.767Z,9.07
2022-09-15T12:47:35.429Z,8.43
2022-09-15T12:50:41.531Z,8.00
2022-09-15T12:53:52.245Z,12.45
2022-09-15T12:56:58.066Z,14.60
2022-09-15T13:00:37.972Z,9.52
2022-09-15T13:04:24.089Z,9.25
2022-09-15T13:07:58.901Z,10.90
2022-09-15T13:11:04.427Z,11.95
2022-09-15T13:14:25.802Z,6.10
2022-09-15T13:17:30.382Z,10.32
2022-09-15T13:20:37.759Z,9.80
2022-09-15T13:23:45.006Z,8.52
2022-09-15T13:26:53.181Z,12.77
2022-09-15T13:30:07.735Z,8.80
2022-09-15T13:41:24.669Z,9.93
2022-09-15T13:44:42.947Z,10.90
2022-09-15T13:48:01.529Z,11.32
2022-09-15T13:51:13.796Z,9.30
2022-09-15T13:54:19.281Z,8.18
2022-09-15T13:58:54.011Z,10.32
2022-09-15T14:00:55.518Z,7.88
2022-09-15T14:04:04.977Z,15.60
2022-09-15T14:07:23.141Z,10.18
2022-09-15T14:10:30.430Z,8.85
2022-09-15T14:13:35.353Z,12.90
2022-09-15T14:16:39.886Z,5.15
2022-09-15T14:19:45.103Z,14.20
2022-09-15T14:22:50.813Z,12.40
2022-09-15T14:25:54.715Z,7.03
2022-09-15T14:29:00.001Z,6.85
2022-09-15T14:32:04.032Z,11.13
2022-09-15T14:35:19.526Z,10.00
2022-09-15T14:38:25.152Z,9.77
2022-09-15T14:41:33.351Z,11.30
2022-09-15T14:48:08.672Z,9.13
2022-09-15T14:51:20.675Z,11.82
2022-09-15T14:54:29.254Z,11.55
2022-09-15T14:57:38.102Z,8.52
2022-09-15T15:00:51.422Z,11.90
2022-09-15T15:04:01.740Z,9.43
2022-09-15T15:07:15.207Z,9.23
2022-09-15T15:10:23.014Z,12.43
2022-09-15T15:13:26.453Z,7.75
2022-09-15T15:16:32.612Z,9.45
2022-09-15T15:19:38.359Z,9.98
2022-09-15T15:22:44.628Z,9.45
2022-09-15T15:25:48.218Z,11.00
2022-09-15T15:28:51.513Z,12.20
2022-09-15T15:31:54.833Z,14.40
2022-09-15T15:35:03.090Z,13.32
2022-09-15T15:38:15.602Z,14.27
2022-09-15T15:41:22.882Z,13.25
2022-09-15T15:44:28.609Z,14.18
2022-09-15T15:47:34.299Z,15.73
2022-09-15T15:50:37.547Z,14.23
2022-09-15T15:53:42.804Z,13.52
2022-09-15T15:56:47.593Z,20.52
2022-09-15T15:59:53.642Z,15.13
2022-09-15T16:02:57.391Z,16.63
2022-09-15T16:06:03.110Z,13.85
2022-09-15T16:09:07.949Z,20.75
2022-09-15T16:12:11.415Z,20.15
2022-09-15T16:15:17.852Z,15.80
2022-09-15T16:18:21.563Z,25.58
2022-09-15T16:21:37.000Z,25.92
2022-09-15T16:24:41.672Z,22.13
2022-09-15T16:27:44.932Z,20.33
2022-09-15T16:30:48.443Z,22.67
2022-09-15T16:33:51.676Z,17.65
2022-09-15T16:36:54.832Z,22.85
2022-09-15T16:39:59.527Z,18.88
2022-09-15T16:43:02.832Z,28.90
2022-09-15T16:46:07.233Z,20.83
2022-09-15T16:49:10.465Z,27.15
2022-09-15T16:52:14.085Z,30.80
2022-09-15T16:55:25.008Z,22.00
2022-09-15T16:58:28.268Z,19.05
2022-09-15T17:01:31.538Z,20.40
2022-09-15T17:04:34.840Z,20.10
2022-09-15T17:07:38.023Z,19.67
2022-09-15T17:10:42.979Z,16.83
2022-09-15T17:13:47.314Z,18.90
2022-09-15T17:16:52.905Z,15.70
2022-09-15T17:19:56.125Z,12.30
2022-09-15T17:22:59.339Z,18.85
2022-09-15T17:26:06.158Z,19.38
2022-09-15T17:29:09.623Z,14.70
2022-09-15T17:32:12.909Z,15.05
2022-09-15T17:35:23.248Z,12.20
2022-09-15T17:38:27.281Z,18.08
2022-09-15T17:41:32.683Z,16.83
2022-09-15T17:44:37.740Z,13.32
2022-09-15T17:47:41.048Z,13.30
2022-09-15T17:50:45.460Z,16.08
2022-09-15T17:53:48.751Z,20.33
2022-09-15T17:56:53.332Z,17.42
2022-09-15T17:59:56.510Z,17.88
2022-09-15T18:03:01.868Z,13.43
2022-09-15T18:06:08.002Z,16.23
2022-09-15T18:09:11.709Z,12.70
2022-09-15T18:12:16.375Z,13.95
2022-09-15T18:15:22.217Z,14.07
2022-09-15T18:18:27.961Z,18.00
2022-09-15T18:21:31.359Z,12.10
2022-09-15T18:24:34.574Z,19.40
2022-09-15T18:27:39.143Z,17.20
2022-09-15T18:30:44.817Z,14.05
2022-09-15T18:33:48.119Z,16.48
2022-09-15T18:36:51.363Z,13.93
2022-09-15T18:39:54.604Z,19.55
2022-09-15T18:42:59.303Z,14.25
2022-09-15T18:46:02.717Z,15.07
2022-09-15T18:49:08.290Z,13.38
2022-09-15T18:52:11.469Z,11.85
2022-09-15T18:55:17.570Z,16.08
2022-09-15T18:58:22.787Z,20.38
2022-09-15T19:01:26.164Z,13.32
2022-09-15T19:04:32.707Z,14.15
2022-09-15T19:07:37.439Z,17.27
2022-09-15T19:10:43.942Z,21.63
2022-09-15T19:13:48.496Z,20.17
2022-09-15T19:16:58.180Z,17.45
2022-09-15T19:20:02.201Z,16.30
2022-09-15T19:23:05.461Z,16.35
2022-09-15T19:26:13.148Z,17.00
2022-09-15T19:29:18.032Z,22.10
2022-09-15T19:32:22.253Z,16.88
2022-09-15T19:35:25.713Z,16.90
2022-09-15T19:38:29.435Z,23.63
2022-09-15T19:41:33.193Z,16.20
2022-09-15T19:44:38.167Z,19.45
2022-09-15T19:47:42.163Z,19.05
2022-09-15T19:50:45.397Z,18.90
2022-09-15T19:53:48.986Z,16.70
2022-09-15T19:56:52.343Z,17.25
2022-09-15T19:59:56.922Z,16.95
2022-09-15T20:03:00.248Z,14.35
2022-09-15T20:06:07.740Z,19.13
2022-09-15T20:09:11.577Z,18.67
2022-09-15T20:12:14.811Z,19.55
2022-09-15T20:15:19.543Z,19.67
2022-09-15T20:18:23.160Z,17.85
2022-09-15T20:21:48.594Z,21.80
2022-09-15T20:24:52.057Z,17.67
2022-09-15T20:27:55.276Z,18.55
2022-09-15T20:31:05.891Z,22.63
2022-09-15T20:34:09.625Z,26.45
2022-09-15T20:37:12.949Z,17.83
2022-09-15T20:40:16.961Z,18.65
2022-09-15T20:43:20.231Z,19.77
2022-09-15T20:46:25.603Z,20.52
2022-09-15T20:49:28.966Z,18.83
2022-09-15T20:52:37.429Z,21.10
2022-09-15T20:55:41.588Z,17.20
2022-09-15T20:58:45.005Z,14.65
2022-09-15T21:01:49.645Z,13.75
2022-09-15T21:04:52.879Z,15.32
2022-09-15T21:07:56.028Z,17.25
2022-09-15T21:10:59.558Z,16.38
2022-09-15T21:14:03.374Z,12.18
2022-09-15T21:17:08.235Z,16.35
2022-09-15T21:20:11.766Z,16.73
2022-09-15T21:23:16.270Z,17.15
2022-09-15T21:26:21.218Z,13.32
2022-09-15T21:29:24.510Z,19.50
2022-09-15T21:32:29.900Z,18.42
2022-09-15T21:35:33.614Z,23.67
2022-09-15T21:38:38.296Z,14.98
2022-09-15T21:41:41.648Z,17.25
2022-09-15T21:44:45.289Z,15.15
2022-09-15T21:47:49.780Z,17.60
2022-09-15T21:50:53.423Z,14.25
2022-09-15T21:53:57.873Z,15.75
2022-09-15T21:57:01.242Z,14.73
2022-09-15T22:00:05.823Z,16.20
2022-09-15T22:03:10.912Z,13.88
2022-09-15T22:06:14.502Z,14.85
2022-09-15T22:09:21.473Z,15.30
2022-09-15T22:12:24.957Z,17.05
2022-09-15T22:15:28.153Z,11.80
2022-09-15T22:18:32.821Z,9.80
2022-09-15T22:21:37.167Z,11.38
2022-09-15T22:24:40.554Z,8.60
2022-09-15T22:27:44.160Z,18.73
2022-09-15T22:30:47.421Z,11.32
2022-09-15T22:33:52.235Z,20.08
2022-09-15T22:36:55.517Z,9.15
2022-09-15T22:39:59.528Z,19.67
2022-09-15T22:43:02.872Z,13.35
2022-09-15T22:46:06.763Z,11.57
2022-09-15T22:49:11.549Z,14.15
2022-09-15T22:52:14.741Z,11.43
2022-09-15T22:55:17.956Z,11.50
2022-09-15T22:58:21.420Z,13.50
2022-09-15T23:01:26.628Z,18.08
2022-09-15T23:04:31.280Z,10.80
2022-09-15T23:07:34.649Z,10.40
2022-09-15T23:10:37.914Z,14.50
2022-09-15T23:13:42.124Z,14.43
2022-09-15T23:16:45.723Z,11.65
2022-09-15T23:19:50.627Z,8.85
2022-09-15T23:22:53.872Z,8.30
2022-09-15T23:25:57.808Z,12.27
2022-09-15T23:29:01.017Z,13.63
2022-09-15T23:32:04.833Z,11.32
2022-09-15T23:35:10.586Z,11.35
2022-09-15T23:38:13.934Z,7.53
2022-09-15T23:41:18.145Z,7.97
2022-09-15T23:44:21.410Z,9.57
2022-09-15T23:47:24.707Z,10.18
2022-09-15T23:50:29.395Z,9.13
2022-09-15T23:53:32.838Z,8.13
2022-09-15T23:56:36.050Z,8.60
2022-09-15T23:59:39.248Z,9.88
